Time;durP1;ratioP1;P1;durP2;ratioP2;P2;SDS_P1;SDS_P2;PMS_P1;PMS_P2;Temp;Humidity;BMP_temperature;BMP_pressure;BME280_temperature;BME280_humidity;BME280_pressure;Samples;Min_cycle;Max_cycle;Signal;HPM_P1;HPM_P2
2022/04/28 00:00:33;;;;;;;;;;;;;;;26.91;26.83;100903.22;5058448;28;1720;-35
2022/04/28 00:02:59;;;;;;;;;;;;;;;26.90;27.66;100898.84;5057656;28;869;-36
2022/04/28 00:05:24;;;;;;;;;;;;;;;26.87;27.48;100904.59;5058631;28;859;-38
2022/04/28 00:07:50;;;;;;;;;;;;;;;26.78;27.21;100901.94;5058031;28;837;-35
2022/04/28 00:10:16;;;;;;;;;;;;;;;26.85;27.21;100890.44;5053732;28;1022;-33
2022/04/28 00:12:41;;;;;;;;;;;;;;;26.84;27.32;100897.69;5058747;28;786;-33
2022/04/28 00:15:06;;;;;;;;;;;;;;;26.83;27.33;100898.69;5058098;28;835;-33
2022/04/28 00:17:32;;;;;;;;;;;;;;;26.85;27.33;100895.81;5058102;28;1957;-34
2022/04/28 00:19:57;;;;;;;;;;;;;;;26.90;27.59;100896.97;5058035;28;834;-34
2022/04/28 00:22:24;;;;;;;;;;;;;;;26.82;27.25;100894.34;5057524;28;894;-36
2022/04/28 00:24:49;;;;;;;;;;;;;;;26.86;27.25;100895.66;5056400;28;954;-33
2022/04/28 00:27:14;;;;;;;;;;;;;;;26.85;27.22;100902.06;5051210;28;830;-35
2022/04/28 00:29:40;;;;;;;;;;;;;;;26.78;27.22;100893.00;5057542;28;751;-33
2022/04/28 00:32:05;;;;;;;;;;;;;;;26.88;27.39;100895.47;5056290;28;1382;-36
2022/04/28 00:34:31;;;;;;;;;;;;;;;26.88;26.95;100890.06;5056200;28;746;-35
2022/04/28 00:36:56;;;;;;;;;;;;;;;26.81;26.90;100895.34;5052216;28;1906;-36
2022/04/28 00:39:21;;;;;;;;;;;;;;;26.87;26.78;100893.78;5050753;28;809;-34
2022/04/28 00:41:46;;;;;;;;;;;;;;;26.87;26.96;100888.41;5057165;28;900;-32
2022/04/28 00:44:12;;;;;;;;;;;;;;;26.86;27.16;100890.25;5057678;28;1461;-36
2022/04/28 00:46:43;;;;;;;;;;;;;;;26.36;26.75;100803.38;5057394;28;997;-36
2022/04/28 00:51:52;;;;;;;;;;;;;;;26.74;26.92;100881.72;5051073;28;643;-35
2022/04/28 00:54:18;;;;;;;;;;;;;;;26.46;26.98;100879.50;5034293;28;1111;-35
2022/04/28 00:56:43;;;;;;;;;;;;;;;26.05;27.74;100883.16;5056782;28;1959;-30
2022/04/28 00:59:08;;;;;;;;;;;;;;;25.42;28.28;100876.44;5057245;28;1259;-32
2022/04/28 01:01:34;;;;;;;;;;;;;;;25.21;28.59;100878.81;5053645;28;782;-29
2022/04/28 01:03:59;;;;;;;;;;;;;;;25.08;28.85;100882.84;5057581;28;1064;-34
2022/04/28 01:06:24;;;;;;;;;;;;;;;24.92;29.13;100873.72;5058333;28;886;-29
2022/04/28 01:08:50;;;;;;;;;;;;;;;24.90;28.95;100873.06;5062403;28;899;-30
2022/04/28 01:11:18;;;;;;;;;;;;;;;24.76;29.12;100871.81;5059688;28;869;-29
2022/04/28 01:13:43;;;;;;;;;;;;;;;24.72;29.35;100867.78;5066238;28;817;-29
2022/04/28 01:16:09;;;;;;;;;;;;;;;24.73;29.37;100866.75;5059839;28;756;-29
2022/04/28 01:18:34;;;;;;;;;;;;;;;24.65;29.51;100862.19;5057565;28;1971;-28
2022/04/28 01:21:03;;;;;;;;;;;;;;;24.69;29.52;100876.16;5072919;28;1357;-30
2022/04/28 01:23:29;;;;;;;;;;;;;;;25.53;29.00;100869.03;5075706;28;923;-33
2022/04/28 01:25:54;;;;;;;;;;;;;;;25.80;28.32;100875.13;5046098;28;847;-34
2022/04/28 01:28:19;;;;;;;;;;;;;;;25.88;27.98;100874.25;5060503;28;881;-35
2022/04/28 01:30:45;;;;;;;;;;;;;;;25.79;28.02;100876.13;5057256;28;818;-33
2022/04/28 01:33:10;;;;;;;;;;;;;;;25.66;28.17;100874.78;5057310;28;809;-33
2022/04/28 01:35:35;;;;;;;;;;;;;;;25.62;28.06;100869.91;5057210;28;960;-33
2022/04/28 01:38:00;;;;;;;;;;;;;;;25.61;28.48;100871.72;5057114;28;1956;-35
2022/04/28 01:40:26;;;;;;;;;;;;;;;25.58;28.08;100865.84;5067975;28;807;-34
2022/04/28 01:42:51;;;;;;;;;;;;;;;25.66;27.93;100866.72;5057177;28;782;-32
2022/04/28 01:45:17;;;;;;;;;;;;;;;25.66;28.11;100872.09;5057219;28;881;-32
2022/04/28 01:47:42;;;;;;;;;;;;;;;25.63;28.25;100872.44;5056720;28;889;-30
2022/04/28 01:50:10;;;;;;;;;;;;;;;25.64;28.24;100873.28;5056965;28;875;-33
2022/04/28 01:55:21;;;;;;;;;;;;;;;25.64;27.97;100868.72;5071698;28;940;-35
2022/04/28 01:57:46;;;;;;;;;;;;;;;25.64;28.19;100871.41;5076084;28;1961;-32
2022/04/28 02:00:12;;;;;;;;;;;;;;;25.66;28.21;100871.25;5057555;28;1041;-32
2022/04/28 02:02:37;;;;;;;;;;;;;;;25.84;28.10;100871.06;5075972;28;1096;-33
2022/04/28 02:05:02;;;;;;;;;;;;;;;25.91;28.09;100863.97;5072802;28;1067;-34
2022/04/28 02:07:28;;;;;;;;;;;;;;;25.84;27.87;100865.66;5072488;28;1342;-34
2022/04/28 02:09:53;;;;;;;;;;;;;;;25.80;28.14;100872.44;5067820;28;990;-36
2022/04/28 02:12:19;;;;;;;;;;;;;;;25.80;27.95;100872.44;5056258;28;924;-35
2022/04/28 02:14:45;;;;;;;;;;;;;;;25.83;27.96;100871.22;5056799;28;842;-32
2022/04/28 02:17:10;;;;;;;;;;;;;;;25.83;27.81;100868.53;5062834;28;1905;-35
2022/04/28 02:19:36;;;;;;;;;;;;;;;25.89;27.55;100870.56;5075458;28;874;-36
2022/04/28 02:22:02;;;;;;;;;;;;;;;25.91;27.63;100872.06;5076187;28;897;-32
2022/04/28 02:24:27;;;;;;;;;;;;;;;25.88;27.64;100869.72;5068694;28;854;-34
2022/04/28 02:26:53;;;;;;;;;;;;;;;25.90;27.73;100867.69;5057060;28;798;-33
2022/04/28 02:29:18;;;;;;;;;;;;;;;25.92;27.48;100870.22;5056088;28;838;-34
2022/04/28 02:31:44;;;;;;;;;;;;;;;25.90;27.65;100866.84;5062759;28;854;-35
2022/04/28 02:34:10;;;;;;;;;;;;;;;25.95;27.50;100871.72;5056558;28;980;-33
2022/04/28 02:36:35;;;;;;;;;;;;;;;25.91;27.30;100868.50;5056307;28;1894;-35
2022/04/28 02:39:01;;;;;;;;;;;;;;;25.89;27.38;100870.56;5059987;28;758;-30
2022/04/28 02:41:26;;;;;;;;;;;;;;;25.92;27.37;100867.53;5058972;28;782;-32
2022/04/28 02:43:51;;;;;;;;;;;;;;;25.89;27.17;100871.38;5062716;28;896;-34
2022/04/28 02:46:17;;;;;;;;;;;;;;;25.89;27.43;100866.00;5056181;28;801;-34
2022/04/28 02:48:42;;;;;;;;;;;;;;;25.99;27.39;100873.06;5055969;28;837;-32
2022/04/28 02:51:08;;;;;;;;;;;;;;;25.95;27.54;100869.03;5056003;28;788;-33
2022/04/28 02:53:34;;;;;;;;;;;;;;;25.96;27.58;100874.22;5058283;28;899;-33
2022/04/28 02:55:59;;;;;;;;;;;;;;;25.98;27.77;100879.44;5067321;28;1022;-34
2022/04/28 02:58:24;;;;;;;;;;;;;;;25.31;26.71;100880.34;5067273;28;1959;-34
2022/04/28 03:00:50;;;;;;;;;;;;;;;24.42;27.84;100875.41;5055422;28;1030;-32
2022/04/28 03:03:15;;;;;;;;;;;;;;;24.24;28.19;100875.47;5058575;28;794;-30
2022/04/28 03:11:09;;;;;;;;;;;;;;;23.99;29.50;100868.06;5079102;28;1154;-33
2022/04/28 03:13:34;;;;;;;;;;;;;;;23.45;29.60;100864.53;5079307;28;786;-33
2022/04/28 03:16:00;;;;;;;;;;;;;;;23.62;29.78;100870.03;5073564;28;1426;-35
2022/04/28 03:18:25;;;;;;;;;;;;;;;23.71;30.02;100874.47;5061139;28;1964;-35
2022/04/28 03:20:50;;;;;;;;;;;;;;;23.71;29.98;100877.16;5065413;28;846;-29
2022/04/28 03:23:16;;;;;;;;;;;;;;;23.69;30.29;100875.63;5076337;28;814;-32
2022/04/28 03:25:41;;;;;;;;;;;;;;;23.70;30.37;100880.84;5060062;28;850;-30
2022/04/28 03:28:08;;;;;;;;;;;;;;;23.60;30.65;100878.25;5061808;28;1237;-34
2022/04/28 03:30:33;;;;;;;;;;;;;;;23.27;31.31;100877.94;5066112;28;763;-30
2022/04/28 03:32:59;;;;;;;;;;;;;;;23.34;31.14;100876.31;5059950;28;832;-31
2022/04/28 03:35:24;;;;;;;;;;;;;;;23.39;30.59;100883.91;5066277;28;750;-34
2022/04/28 03:37:49;;;;;;;;;;;;;;;23.40;30.93;100882.94;5059368;28;1902;-30
2022/04/28 03:40:16;;;;;;;;;;;;;;;23.41;31.04;100887.31;5065862;28;1092;-31
2022/04/28 03:42:41;;;;;;;;;;;;;;;23.45;31.05;100888.72;5059186;28;842;-31
2022/04/28 03:45:07;;;;;;;;;;;;;;;23.36;31.13;100894.94;5059608;28;799;-31
2022/04/28 03:47:33;;;;;;;;;;;;;;;23.60;30.82;100898.88;5065382;28;866;-34
2022/04/28 03:49:58;;;;;;;;;;;;;;;23.55;30.84;100899.34;5059092;28;1194;-29
2022/04/28 03:52:23;;;;;;;;;;;;;;;23.52;31.20;100898.81;5066455;28;1247;-30
2022/04/28 03:54:48;;;;;;;;;;;;;;;23.58;31.55;100899.03;5068886;28;1334;-32
2022/04/28 03:57:14;;;;;;;;;;;;;;;24.18;31.20;100893.06;5073419;28;1878;-34
2022/04/28 03:59:39;;;;;;;;;;;;;;;24.26;31.03;100890.44;5072746;28;1477;-30
2022/04/28 04:02:04;;;;;;;;;;;;;;;24.36;30.86;100884.13;5072182;28;1422;-33
2022/04/28 04:04:30;;;;;;;;;;;;;;;24.14;30.93;100902.44;5069794;28;1426;-36
2022/04/28 04:06:55;;;;;;;;;;;;;;;24.27;30.43;100902.88;5063544;28;858;-34
2022/04/28 04:09:20;;;;;;;;;;;;;;;24.19;30.85;100897.47;5064605;28;869;-37
2022/04/28 04:11:45;;;;;;;;;;;;;;;24.12;31.10;100897.22;5065824;28;1303;-32
2022/04/28 04:14:11;;;;;;;;;;;;;;;24.18;30.97;100903.84;5067698;28;1401;-32
2022/04/28 04:16:37;;;;;;;;;;;;;;;24.36;30.76;100894.88;5068727;28;1909;-35
2022/04/28 04:19:02;;;;;;;;;;;;;;;24.51;30.46;100895.94;5072127;28;1473;-34
2022/04/28 04:21:27;;;;;;;;;;;;;;;24.46;31.39;100901.78;5074229;28;1358;-34
2022/04/28 04:23:53;;;;;;;;;;;;;;;24.43;31.19;100898.56;5062673;28;1421;-32
2022/04/28 04:26:18;;;;;;;;;;;;;;;24.43;31.36;100899.44;5061900;28;819;-36
2022/04/28 04:28:43;;;;;;;;;;;;;;;24.61;31.24;100898.47;5063751;28;877;-32
2022/04/28 04:33:52;;;;;;;;;;;;;;;24.61;31.58;100894.97;5058308;28;667;-34
2022/04/28 04:36:18;;;;;;;;;;;;;;;24.73;31.46;100898.19;5058703;28;791;-36
2022/04/28 04:38:43;;;;;;;;;;;;;;;24.87;31.38;100905.66;5069620;28;1921;-36
2022/04/28 04:41:11;;;;;;;;;;;;;;;24.79;31.61;100911.00;5064813;28;1433;-32
2022/04/28 04:43:37;;;;;;;;;;;;;;;24.78;31.47;100915.53;5072122;28;901;-34
2022/04/28 04:46:02;;;;;;;;;;;;;;;24.88;31.36;100915.38;5073900;28;869;-31
2022/04/28 04:48:28;;;;;;;;;;;;;;;24.97;31.29;100910.91;5058748;28;759;-34
2022/04/28 04:50:54;;;;;;;;;;;;;;;25.07;31.00;100918.84;5066713;28;780;-34
2022/04/28 04:53:20;;;;;;;;;;;;;;;25.08;30.95;100925.91;5067475;28;1509;-35
2022/04/28 04:55:45;;;;;;;;;;;;;;;25.14;31.12;100930.63;5067961;28;1394;-34
2022/04/28 04:58:10;;;;;;;;;;;;;;;25.21;31.02;100935.34;5070128;28;1959;-32
2022/04/28 05:00:36;;;;;;;;;;;;;;;25.17;31.22;100941.03;5077084;28;1024;-34
2022/04/28 05:03:01;;;;;;;;;;;;;;;25.27;31.02;100943.63;5071003;28;780;-33
2022/04/28 05:05:26;;;;;;;;;;;;;;;25.31;31.10;100942.25;5061130;28;879;-37
2022/04/28 05:07:52;;;;;;;;;;;;;;;25.58;31.09;100942.13;5057628;28;775;-33
2022/04/28 05:10:17;;;;;;;;;;;;;;;25.71;30.78;100936.25;5075593;28;979;-38
2022/04/28 05:12:42;;;;;;;;;;;;;;;25.55;30.97;100937.91;5077165;28;866;-32
2022/04/28 05:15:08;;;;;;;;;;;;;;;25.52;30.96;100935.56;5071267;28;1406;-34
2022/04/28 05:17:34;;;;;;;;;;;;;;;25.34;31.53;100941.06;5063152;28;1894;-34
2022/04/28 05:20:00;;;;;;;;;;;;;;;25.32;31.88;100932.34;5055792;28;1280;-32
2022/04/28 05:22:25;;;;;;;;;;;;;;;25.29;32.15;100944.28;5068571;28;1363;-33
2022/04/28 05:24:51;;;;;;;;;;;;;;;25.35;31.42;100955.38;5071049;28;1264;-32
2022/04/28 05:27:16;;;;;;;;;;;;;;;25.47;31.48;100948.69;5044641;28;1217;-34
2022/04/28 05:29:41;;;;;;;;;;;;;;;25.63;30.72;100949.72;5069236;28;1303;-34
2022/04/28 05:32:07;;;;;;;;;;;;;;;25.64;30.68;100951.41;5073164;28;1386;-35
2022/04/28 05:34:32;;;;;;;;;;;;;;;25.68;30.54;100953.59;5064394;28;859;-32
2022/04/28 05:36:58;;;;;;;;;;;;;;;25.77;30.39;100957.16;5059790;28;1894;-35
2022/04/28 05:39:23;;;;;;;;;;;;;;;25.80;30.29;100959.50;5064455;28;928;-35
2022/04/28 05:41:48;;;;;;;;;;;;;;;25.78;30.38;100966.91;5050148;28;917;-31
2022/04/28 05:46:58;;;;;;;;;;;;;;;25.94;30.24;100962.53;5076160;28;851;-33
2022/04/28 05:49:23;;;;;;;;;;;;;;;26.00;30.25;100967.22;5074862;28;1409;-31
2022/04/28 05:51:49;;;;;;;;;;;;;;;25.90;30.30;100955.78;5076404;28;905;-34
2022/04/28 05:54:14;;;;;;;;;;;;;;;26.06;30.37;100954.91;5074728;28;809;-30
2022/04/28 05:56:41;;;;;;;;;;;;;;;26.17;30.21;100954.56;5059735;28;1898;-35
2022/04/28 05:59:07;;;;;;;;;;;;;;;26.15;30.21;100951.19;5056793;28;767;-34
2022/04/28 06:01:32;;;;;;;;;;;;;;;26.31;30.42;100957.56;5065341;28;1124;-37
2022/04/28 06:03:57;;;;;;;;;;;;;;;26.47;30.06;100953.16;5058820;28;806;-32
2022/04/28 06:06:23;;;;;;;;;;;;;;;26.33;30.20;100962.81;5061873;28;1163;-33
2022/04/28 06:08:48;;;;;;;;;;;;;;;26.36;29.86;100951.69;5068141;28;1278;-33
2022/04/28 06:11:13;;;;;;;;;;;;;;;26.41;29.90;100952.84;5071438;28;1235;-34
2022/04/28 06:13:39;;;;;;;;;;;;;;;26.37;30.42;100956.06;5058387;28;1339;-31
2022/04/28 06:16:04;;;;;;;;;;;;;;;26.34;30.11;100954.53;5064452;28;1327;-34
2022/04/28 06:18:30;;;;;;;;;;;;;;;26.29;30.69;100955.03;5066835;28;1979;-34
2022/04/28 06:20:55;;;;;;;;;;;;;;;26.19;28.58;100959.81;5071557;28;1168;-31
2022/04/28 06:23:20;;;;;;;;;;;;;;;26.20;28.58;100963.31;5073483;28;1250;-30
2022/04/28 06:25:47;;;;;;;;;;;;;;;26.09;30.11;100951.88;5073235;28;1482;-32
2022/04/28 06:28:14;;;;;;;;;;;;;;;26.17;29.69;100962.63;5056897;28;827;-30
2022/04/28 06:30:39;;;;;;;;;;;;;;;26.24;30.13;100961.97;5056328;28;822;-32
2022/04/28 06:33:04;;;;;;;;;;;;;;;26.28;29.95;100969.53;5064001;28;790;-34
2022/04/28 06:35:33;;;;;;;;;;;;;;;26.26;29.70;100971.56;5056188;28;821;-32
2022/04/28 06:37:58;;;;;;;;;;;;;;;26.37;29.27;100967.72;5064627;28;1968;-33
2022/04/28 06:40:23;;;;;;;;;;;;;;;26.44;29.19;100973.25;5067134;28;802;-31
2022/04/28 06:42:51;;;;;;;;;;;;;;;26.20;28.87;100980.34;5065634;28;837;-32
2022/04/28 06:45:17;;;;;;;;;;;;;;;26.35;28.82;100982.38;5067329;28;1231;-34
2022/04/28 06:47:43;;;;;;;;;;;;;;;26.32;28.90;100980.84;5074297;28;1087;-33
2022/04/28 06:50:09;;;;;;;;;;;;;;;26.48;28.31;100973.72;5060161;28;794;-33
2022/04/28 06:52:37;;;;;;;;;;;;;;;26.32;28.22;100975.44;5059454;28;818;-32
2022/04/28 06:55:03;;;;;;;;;;;;;;;26.53;27.36;100982.13;5076266;28;1231;-32
2022/04/28 06:57:28;;;;;;;;;;;;;;;26.27;26.70;100984.06;5073274;28;1906;-34
2022/04/28 06:59:55;;;;;;;;;;;;;;;26.17;27.01;100975.28;5070338;28;1362;-33
2022/04/28 07:02:20;;;;;;;;;;;;;;;26.36;26.86;100979.50;5064476;28;1674;-30
2022/04/28 07:04:46;;;;;;;;;;;;;;;26.26;26.94;100979.66;5078030;28;1358;-34
2022/04/28 07:07:11;;;;;;;;;;;;;;;26.24;26.97;100978.16;5066813;28;884;-33
2022/04/28 07:09:36;;;;;;;;;;;;;;;26.48;26.70;100985.38;5070207;28;900;-34
2022/04/28 07:12:02;;;;;;;;;;;;;;;26.27;26.88;100983.19;5066849;28;1179;-31
2022/04/28 07:14:27;;;;;;;;;;;;;;;26.21;26.99;100981.19;5061146;28;774;-32
2022/04/28 07:16:52;;;;;;;;;;;;;;;26.02;28.88;100984.09;5062471;28;1909;-31
2022/04/28 07:19:18;;;;;;;;;;;;;;;26.01;29.44;100990.47;5070399;28;799;-34
2022/04/28 07:21:43;;;;;;;;;;;;;;;26.00;30.41;100988.78;5068520;28;1130;-32
2022/04/28 07:24:08;;;;;;;;;;;;;;;25.98;30.03;100990.81;5071815;28;1008;-35
2022/04/28 07:26:34;;;;;;;;;;;;;;;26.22;29.80;100999.91;5077728;28;1179;-37
2022/04/28 07:28:59;;;;;;;;;;;;;;;26.18;30.39;100995.84;5076742;28;1354;-36
2022/04/28 07:31:24;;;;;;;;;;;;;;;26.46;30.54;101000.88;5073241;28;918;-36
2022/04/28 07:33:49;;;;;;;;;;;;;;;26.49;30.59;100997.00;5077024;28;1311;-33
2022/04/28 07:36:15;;;;;;;;;;;;;;;26.39;28.93;100999.91;5072676;28;1283;-32
2022/04/28 07:38:41;;;;;;;;;;;;;;;26.47;28.89;101010.66;5072992;28;1953;-35
2022/04/28 07:41:06;;;;;;;;;;;;;;;26.41;28.98;101006.78;5071512;28;1163;-33
2022/04/28 07:43:32;;;;;;;;;;;;;;;26.43;29.17;101008.47;5070025;28;1148;-36
2022/04/28 07:45:57;;;;;;;;;;;;;;;26.78;29.56;101000.94;5071904;28;1319;-36
2022/04/28 07:48:22;;;;;;;;;;;;;;;26.77;30.68;101010.06;5073235;28;913;-32
2022/04/28 07:50:48;;;;;;;;;;;;;;;26.56;31.20;101007.94;5061647;28;785;-33
2022/04/28 07:53:13;;;;;;;;;;;;;;;26.36;32.21;101003.75;5058259;28;1552;-33
2022/04/28 07:55:38;;;;;;;;;;;;;;;26.27;32.83;101002.06;5075266;28;811;-32
2022/04/28 07:58:04;;;;;;;;;;;;;;;26.37;31.80;101005.47;5078396;28;1898;-31
2022/04/28 08:00:29;;;;;;;;;;;;;;;26.62;31.36;101009.94;5074259;28;1362;-30
2022/04/28 08:02:54;;;;;;;;;;;;;;;26.82;31.07;101007.69;5071240;28;1153;-34
2022/04/28 08:05:20;;;;;;;;;;;;;;;26.91;30.90;101016.56;5073440;28;1452;-36
2022/04/28 08:07:45;;;;;;;;;;;;;;;26.94;30.43;101013.56;5073861;28;1315;-33
2022/04/28 08:10:10;;;;;;;;;;;;;;;26.65;30.77;101018.53;5074199;28;1536;-32
2022/04/28 08:12:35;;;;;;;;;;;;;;;26.38;30.54;101025.16;5071136;28;1387;-32
2022/04/28 08:15:01;;;;;;;;;;;;;;;26.32;31.12;101029.38;5077271;28;1291;-35
2022/04/28 08:17:26;;;;;;;;;;;;;;;26.36;31.18;101022.66;5068898;28;1910;-31
2022/04/28 08:19:52;;;;;;;;;;;;;;;26.59;30.71;101023.78;5069845;28;818;-34
2022/04/28 08:22:17;;;;;;;;;;;;;;;26.52;29.81;101026.34;5070376;28;899;-32
2022/04/28 08:24:42;;;;;;;;;;;;;;;26.65;29.95;101028.47;5066459;28;1156;-31
2022/04/28 08:27:07;;;;;;;;;;;;;;;26.71;29.24;101024.28;5074165;28;1415;-33
2022/04/28 08:29:33;;;;;;;;;;;;;;;26.64;29.39;101026.81;5070146;28;1223;-32
2022/04/28 08:31:58;;;;;;;;;;;;;;;26.68;29.32;101035.38;5061120;28;806;-33
2022/04/28 08:34:23;;;;;;;;;;;;;;;26.60;30.26;101036.25;5062095;28;1472;-34
2022/04/28 08:36:49;;;;;;;;;;;;;;;26.83;29.86;101032.81;5069296;28;2291;-35
2022/04/28 08:39:14;;;;;;;;;;;;;;;26.64;30.40;101043.00;5072125;28;1279;-34
2022/04/28 08:41:46;;;;;;;;;;;;;;;26.70;30.18;101036.06;5077442;28;845;-33
2022/04/28 08:44:18;;;;;;;;;;;;;;;26.79;28.94;101040.44;5077574;28;806;-31
2022/04/28 08:46:53;;;;;;;;;;;;;;;26.93;29.08;101044.25;5070984;28;1531;-32
2022/04/28 08:49:28;;;;;;;;;;;;;;;26.62;29.67;101053.13;5070962;28;793;-33
2022/04/28 08:51:58;;;;;;;;;;;;;;;26.62;30.40;101051.28;5057563;28;1020;-35
2022/04/28 08:54:24;;;;;;;;;;;;;;;26.55;30.88;101049.41;5069247;28;1489;-34
2022/04/28 08:56:50;;;;;;;;;;;;;;;26.84;30.21;101050.69;5072770;28;1894;-33
2022/04/28 08:59:15;;;;;;;;;;;;;;;27.24;28.79;101046.16;5069154;28;1318;-36
2022/04/28 09:01:41;;;;;;;;;;;;;;;27.36;28.13;101052.00;5062576;28;1517;-34
2022/04/28 09:04:07;;;;;;;;;;;;;;;27.03;28.47;101052.16;5075847;28;1440;-36
2022/04/28 09:06:34;;;;;;;;;;;;;;;26.76;28.54;101063.19;5062433;28;872;-32
2022/04/28 09:09:00;;;;;;;;;;;;;;;26.95;28.60;101054.88;5063597;28;1338;-36
2022/04/28 09:11:26;;;;;;;;;;;;;;;27.07;29.08;101058.91;5056484;28;827;-36
2022/04/28 09:14:17;;;;;;;;;;;;;;;26.89;28.75;101062.66;5053131;28;1498;-32
2022/04/28 09:16:43;;;;;;;;;;;;;;;26.91;28.61;101057.06;5072538;28;1310;-36
2022/04/28 09:19:09;;;;;;;;;;;;;;;27.05;28.69;101055.53;5069045;28;1914;-33
2022/04/28 09:21:34;;;;;;;;;;;;;;;26.92;28.84;101060.63;5062159;28;1339;-31
2022/04/28 09:24:00;;;;;;;;;;;;;;;26.94;28.82;101053.19;5073000;28;1386;-33
2022/04/28 09:26:25;;;;;;;;;;;;;;;27.14;28.28;101062.56;5074520;28;1346;-35
2022/04/28 09:28:51;;;;;;;;;;;;;;;27.15;28.40;101060.72;5061478;28;847;-31
2022/04/28 09:31:17;;;;;;;;;;;;;;;27.35;28.11;101061.13;5069771;28;1421;-36
2022/04/28 09:33:44;;;;;;;;;;;;;;;27.46;28.38;101064.47;5074492;28;1366;-33
2022/04/28 09:36:10;;;;;;;;;;;;;;;27.51;28.24;101064.75;5075198;28;1219;-36
2022/04/28 09:38:35;;;;;;;;;;;;;;;27.56;28.17;101059.66;5069718;28;1906;-34
2022/04/28 09:43:44;;;;;;;;;;;;;;;27.59;28.39;101067.41;5071236;28;1199;-33
2022/04/28 09:46:10;;;;;;;;;;;;;;;27.61;28.28;101068.06;5074131;28;1360;-35
2022/04/28 09:48:36;;;;;;;;;;;;;;;27.61;28.13;101070.78;5071548;28;1278;-35
2022/04/28 09:51:26;;;;;;;;;;;;;;;27.65;28.09;101063.16;5075449;28;1302;-33
2022/04/28 09:53:51;;;;;;;;;;;;;;;27.70;27.97;101066.19;5071377;28;1338;-32
2022/04/28 09:56:18;;;;;;;;;;;;;;;27.73;27.81;101070.38;5073857;28;1328;-34
2022/04/28 09:58:43;;;;;;;;;;;;;;;27.80;27.70;101065.09;5049780;28;1965;-36
2022/04/28 10:01:09;;;;;;;;;;;;;;;27.32;28.26;101072.31;5021050;28;1482;-35
2022/04/28 10:03:34;;;;;;;;;;;;;;;27.05;28.86;101065.50;5056809;28;809;-31
2022/04/28 10:06:02;;;;;;;;;;;;;;;26.97;28.75;101066.34;5065742;28;1234;-32
2022/04/28 10:08:27;;;;;;;;;;;;;;;27.45;28.19;101060.06;5071316;28;1299;-33
2022/04/28 10:10:55;;;;;;;;;;;;;;;27.41;28.32;101064.16;5069903;28;1329;-36
2022/04/28 10:13:21;;;;;;;;;;;;;;;27.38;28.00;101059.94;5070126;28;966;-37
2022/04/28 10:15:47;;;;;;;;;;;;;;;27.33;27.75;101073.97;5071925;28;870;-34
2022/04/28 10:18:12;;;;;;;;;;;;;;;27.41;27.67;101067.69;5055289;28;1906;-33
2022/04/28 10:20:38;;;;;;;;;;;;;;;27.37;27.18;101055.56;5072286;28;1300;-35
2022/04/28 10:23:05;;;;;;;;;;;;;;;27.45;26.80;101060.91;5073458;28;1369;-33
2022/04/28 10:34:14;;;;;;;;;;;;;;;27.13;27.99;101060.91;5071471;28;1168;-35
2022/04/28 10:36:53;;;;;;;;;;;;;;;26.95;27.95;101060.25;5071563;28;1263;-35
2022/04/28 10:39:31;;;;;;;;;;;;;;;27.08;28.74;101059.75;5072223;28;1445;-36
2022/04/28 10:41:56;;;;;;;;;;;;;;;27.15;28.49;101063.44;5069115;28;1402;-32
2022/04/28 10:44:22;;;;;;;;;;;;;;;27.36;28.17;101056.59;5075741;28;1544;-34
2022/04/28 10:47:00;;;;;;;;;;;;;;;27.09;28.43;101066.84;5049111;28;1307;-33
2022/04/28 10:49:26;;;;;;;;;;;;;;;27.31;27.71;101061.69;5072138;28;817;-35
2022/04/28 10:51:57;;;;;;;;;;;;;;;27.69;27.01;101060.97;5056211;28;845;-35
2022/04/28 10:54:24;;;;;;;;;;;;;;;27.84;26.84;101064.56;5063354;28;947;-33
2022/04/28 10:56:56;;;;;;;;;;;;;;;27.69;26.78;101060.97;5039062;28;847;-32
2022/04/28 11:01:52;;;;;;;;;;;;;;;27.75;25.96;101065.66;5057605;28;694;-32
2022/04/28 11:04:21;;;;;;;;;;;;;;;27.70;26.48;101066.19;5056218;28;838;-35
2022/04/28 11:06:50;;;;;;;;;;;;;;;27.79;25.88;101061.59;5056071;28;870;-33
2022/04/28 11:09:16;;;;;;;;;;;;;;;27.85;25.55;101063.56;5066743;28;900;-34
2022/04/28 11:11:45;;;;;;;;;;;;;;;27.86;25.71;101072.53;5057325;28;887;-33
2022/04/28 11:14:10;;;;;;;;;;;;;;;27.89;25.85;101063.19;5062726;28;799;-31
2022/04/28 11:16:36;;;;;;;;;;;;;;;27.94;25.79;101071.59;5056180;28;841;-31
2022/04/28 11:19:01;;;;;;;;;;;;;;;28.01;25.57;101056.31;5055740;28;1973;-31
2022/04/28 11:21:27;;;;;;;;;;;;;;;28.02;25.59;101055.31;5056187;28;747;-32
2022/04/28 11:23:53;;;;;;;;;;;;;;;27.94;25.85;101058.94;5067054;28;1402;-31
2022/04/28 11:26:19;;;;;;;;;;;;;;;28.02;25.94;101055.31;5075838;28;891;-33
2022/04/28 11:28:44;;;;;;;;;;;;;;;27.80;26.06;101062.41;5071770;28;1291;-32
2022/04/28 11:31:13;;;;;;;;;;;;;;;27.82;25.91;101053.13;5053482;28;1256;-36
2022/04/28 11:33:41;;;;;;;;;;;;;;;28.09;26.00;101056.25;5069723;28;1326;-32
2022/04/28 11:36:16;;;;;;;;;;;;;;;27.94;26.48;101058.94;5070987;28;1187;-31
2022/04/28 11:38:47;;;;;;;;;;;;;;;28.06;26.46;101053.91;5068854;28;1905;-31
2022/04/28 11:41:13;;;;;;;;;;;;;;;28.08;26.57;101049.19;5078815;28;801;-33
2022/04/28 11:43:38;;;;;;;;;;;;;;;28.22;26.01;101050.25;5078672;28;922;-35
2022/04/28 11:46:03;;;;;;;;;;;;;;;28.20;26.39;101051.44;5078467;28;799;-30
2022/04/28 11:48:29;;;;;;;;;;;;;;;28.14;26.50;101052.19;5066209;28;961;-35
2022/04/28 11:50:55;;;;;;;;;;;;;;;28.21;26.57;101055.84;5065554;28;850;-33
2022/04/28 11:53:21;;;;;;;;;;;;;;;28.27;26.34;101051.53;5044435;28;1208;-32
2022/04/28 11:55:48;;;;;;;;;;;;;;;28.06;26.64;101040.41;5051595;28;1350;-34
2022/04/28 11:58:15;;;;;;;;;;;;;;;28.01;26.77;101045.50;5072708;28;1941;-35
2022/04/28 12:00:44;;;;;;;;;;;;;;;28.10;26.83;101049.84;5069658;28;1289;-34
2022/04/28 12:03:20;;;;;;;;;;;;;;;28.32;26.28;101043.72;5061979;28;834;-33
2022/04/28 12:05:45;;;;;;;;;;;;;;;28.31;26.82;101042.88;5042893;28;1164;-34
2022/04/28 12:08:11;;;;;;;;;;;;;;;28.18;26.42;101040.81;5054284;28;1660;-34
2022/04/28 12:16:05;;;;;;;;;;;;;;;28.16;26.84;101040.13;5067957;28;1152;-34
2022/04/28 12:21:15;;;;;;;;;;;;;;;28.32;26.72;101039.16;5072325;28;727;-34
2022/04/28 12:23:41;;;;;;;;;;;;;;;28.31;26.48;101032.06;5068802;28;1258;-35
2022/04/28 12:26:07;;;;;;;;;;;;;;;28.42;26.47;101036.22;5065714;28;1171;-35
2022/04/28 12:28:35;;;;;;;;;;;;;;;28.28;26.48;101037.00;5060420;28;810;-37
2022/04/28 12:31:02;;;;;;;;;;;;;;;28.32;26.70;101032.91;5064732;28;739;-37
2022/04/28 12:33:33;;;;;;;;;;;;;;;28.47;26.20;101032.94;5058529;28;956;-34
2022/04/28 12:35:59;;;;;;;;;;;;;;;28.47;26.45;101028.38;5063318;28;1160;-33
2022/04/28 12:38:26;;;;;;;;;;;;;;;28.30;26.63;101029.53;5060683;28;1914;-32
2022/04/28 12:40:51;;;;;;;;;;;;;;;28.18;26.54;101035.38;5070279;28;1517;-33
2022/04/28 12:43:37;;;;;;;;;;;;;;;28.41;26.58;101037.22;5070150;28;1406;-33
2022/04/28 12:46:03;;;;;;;;;;;;;;;28.33;26.83;101032.75;5063134;28;1406;-35
2022/04/28 12:48:32;;;;;;;;;;;;;;;28.40;26.59;101027.44;5072261;28;1473;-30
2022/04/28 12:51:24;;;;;;;;;;;;;;;28.53;26.62;101024.09;5057559;28;810;-30
2022/04/28 12:53:50;;;;;;;;;;;;;;;28.51;26.55;101030.72;5066803;28;1195;-34
2022/04/28 12:56:16;;;;;;;;;;;;;;;27.74;25.49;101036.94;5063828;28;778;-32
2022/04/28 12:58:42;;;;;;;;;;;;;;;27.64;24.59;101034.47;5066955;28;1909;-37
2022/04/28 13:01:08;;;;;;;;;;;;;;;27.45;23.70;101031.19;5068018;28;1302;-32
2022/04/28 13:03:34;;;;;;;;;;;;;;;27.32;24.25;101034.50;5069958;28;1405;-33
2022/04/28 13:05:59;;;;;;;;;;;;;;;27.18;24.36;101040.63;5068139;28;1509;-33
2022/04/28 13:08:24;;;;;;;;;;;;;;;27.20;24.11;101035.88;5070339;28;1105;-32
2022/04/28 13:10:50;;;;;;;;;;;;;;;27.04;24.55;101031.41;5066196;28;1163;-29
2022/04/28 13:13:15;;;;;;;;;;;;;;;26.97;24.53;101033.94;5054314;28;1077;-30
2022/04/28 13:15:40;;;;;;;;;;;;;;;26.91;24.52;101038.16;5064724;28;1407;-31
2022/04/28 13:18:06;;;;;;;;;;;;;;;26.93;24.16;101022.66;5058304;28;1967;-27
2022/04/28 13:20:31;;;;;;;;;;;;;;;26.94;24.37;101028.91;5068582;28;1597;-28
2022/04/28 13:22:57;;;;;;;;;;;;;;;26.99;24.62;101021.94;5072265;28;1125;-30